createdAt,value
2017-06-26T00:01:33.081Z,3.17
2017-06-26T00:03:59.256Z,3.20
2017-06-26T00:06:25.465Z,3.10
2017-06-26T00:08:52.387Z,3.00
2017-06-26T00:11:18.587Z,3.50
2017-06-26T00:13:44.761Z,3.30
2017-06-26T00:16:11.691Z,3.40
2017-06-26T00:18:37.874Z,3.70
2017-06-26T00:21:04.095Z,3.80
2017-06-26T00:23:30.268Z,2.83
2017-06-26T00:25:56.437Z,3.15
2017-06-26T00:28:22.636Z,3.35
2017-06-26T00:30:49.560Z,3.30
2017-06-26T00:33:15.752Z,3.75
2017-06-26T00:35:41.928Z,3.50
2017-06-26T00:38:08.866Z,3.25
2017-06-26T00:40:35.029Z,3.45
2017-06-26T00:43:01.221Z,3.40
2017-06-26T00:45:27.431Z,3.47
2017-06-26T00:47:53.599Z,2.97
2017-06-26T00:50:19.800Z,3.30
2017-06-26T00:52:45.975Z,3.37
2017-06-26T00:55:12.147Z,3.35
2017-06-26T00:57:38.339Z,3.35
2017-06-26T01:00:04.541Z,3.45
2017-06-26T01:02:30.815Z,3.47
2017-06-26T01:04:57.008Z,3.22
2017-06-26T01:07:23.227Z,3.60
2017-06-26T01:09:49.405Z,3.10
2017-06-26T01:12:15.592Z,3.37
2017-06-26T01:14:41.788Z,3.90
2017-06-26T01:17:07.969Z,3.70
2017-06-26T01:19:34.151Z,3.95
2017-06-26T01:22:00.396Z,4.20
2017-06-26T01:24:26.601Z,3.60
2017-06-26T01:26:52.772Z,3.50
2017-06-26T01:29:18.935Z,4.20
2017-06-26T01:31:45.903Z,4.05
2017-06-26T01:34:12.115Z,3.92
2017-06-26T01:36:39.068Z,3.58
2017-06-26T01:39:05.252Z,4.15
2017-06-26T01:41:31.469Z,3.55
2017-06-26T01:43:57.667Z,3.62
2017-06-26T01:46:23.905Z,3.90
2017-06-26T01:48:50.100Z,3.58
2017-06-26T01:51:16.320Z,4.07
2017-06-26T01:53:43.300Z,3.62
2017-06-26T01:56:09.470Z,3.78
2017-06-26T01:58:35.688Z,3.33
2017-06-26T02:01:01.865Z,3.80
2017-06-26T02:03:28.098Z,3.60
2017-06-26T02:05:54.260Z,3.87
2017-06-26T02:08:20.428Z,3.30
2017-06-26T02:10:47.372Z,3.70
2017-06-26T02:13:13.538Z,4.20
2017-06-26T02:15:39.730Z,4.00
2017-06-26T02:18:05.916Z,3.85
2017-06-26T02:20:32.119Z,3.80
2017-06-26T02:22:58.327Z,4.15
2017-06-26T02:25:24.504Z,3.60
2017-06-26T02:27:50.705Z,3.40
2017-06-26T02:30:16.875Z,3.60
2017-06-26T02:32:43.789Z,3.95
2017-06-26T02:35:09.984Z,4.55
2017-06-26T02:37:36.155Z,3.70
2017-06-26T02:40:02.407Z,3.87
2017-06-26T02:42:29.318Z,3.60
2017-06-26T02:44:55.504Z,3.90
2017-06-26T02:47:21.691Z,4.93
2017-06-26T02:49:48.636Z,3.80
2017-06-26T02:52:15.609Z,3.95
2017-06-26T02:54:41.808Z,4.00
2017-06-26T02:57:07.992Z,4.00
2017-06-26T02:59:34.465Z,4.00
2017-06-26T03:02:00.656Z,3.67
2017-06-26T03:04:26.823Z,4.00
2017-06-26T03:06:53.755Z,4.18
2017-06-26T03:09:19.939Z,4.20
2017-06-26T03:11:56.487Z,3.75
2017-06-26T03:14:22.651Z,3.70
2017-06-26T03:16:48.856Z,4.20
2017-06-26T03:19:15.024Z,4.15
2017-06-26T03:21:41.216Z,4.00
2017-06-26T03:24:07.411Z,3.97
2017-06-26T03:26:34.352Z,3.92
2017-06-26T03:29:01.260Z,4.20
2017-06-26T03:31:28.217Z,4.65
2017-06-26T03:33:54.387Z,4.05
2017-06-26T03:36:20.621Z,3.65
2017-06-26T03:38:46.807Z,4.32
2017-06-26T03:41:12.997Z,3.87
2017-06-26T03:43:39.182Z,3.80
2017-06-26T03:46:05.379Z,4.35
2017-06-26T03:48:31.552Z,4.43
2017-06-26T03:50:57.789Z,4.20
2017-06-26T03:53:23.977Z,4.25
2017-06-26T03:55:50.156Z,4.70
2017-06-26T03:58:16.354Z,4.50
2017-06-26T04:00:42.588Z,4.12
2017-06-26T04:03:08.815Z,3.47
2017-06-26T04:05:34.987Z,3.50
2017-06-26T04:08:01.180Z,3.50
2017-06-26T04:10:27.354Z,3.72
2017-06-26T04:12:54.279Z,3.65
2017-06-26T04:15:20.452Z,3.42
2017-06-26T04:17:46.709Z,3.83
2017-06-26T04:20:12.884Z,3.10
2017-06-26T04:22:39.815Z,3.72
2017-06-26T04:25:06.081Z,3.47
2017-06-26T04:27:32.269Z,3.35
2017-06-26T04:29:58.451Z,3.45
2017-06-26T04:32:24.624Z,3.17
2017-06-26T04:34:50.854Z,2.83
2017-06-26T04:37:17.036Z,3.30
2017-06-26T04:39:43.267Z,3.10
2017-06-26T04:42:09.496Z,3.33
2017-06-26T04:44:35.692Z,3.03
2017-06-26T04:47:01.891Z,3.10
2017-06-26T04:49:28.817Z,2.95
2017-06-26T04:51:55.017Z,3.25
2017-06-26T04:54:21.195Z,3.70
2017-06-26T04:56:47.361Z,3.75
2017-06-26T04:59:13.552Z,3.25
2017-06-26T05:01:40.465Z,6.30
2017-06-26T05:04:06.668Z,4.47
2017-06-26T05:06:32.877Z,4.40
2017-06-26T05:08:59.101Z,3.85
2017-06-26T05:11:25.275Z,4.15
2017-06-26T05:13:51.485Z,3.83
2017-06-26T05:16:17.675Z,3.80
2017-06-26T05:18:43.852Z,4.30
2017-06-26T05:21:10.060Z,4.00
2017-06-26T05:23:36.284Z,3.60
2017-06-26T05:26:02.491Z,2.85
2017-06-26T05:28:28.668Z,3.40
2017-06-26T05:30:54.848Z,3.70
2017-06-26T05:33:21.040Z,3.95
2017-06-26T05:35:47.232Z,4.05
2017-06-26T05:38:13.435Z,3.40
2017-06-26T05:40:39.608Z,3.70
2017-06-26T05:43:05.923Z,3.25
2017-06-26T05:45:32.099Z,3.80
2017-06-26T05:47:58.255Z,2.90
2017-06-26T05:50:24.468Z,3.72
2017-06-26T05:52:50.643Z,2.90
2017-06-26T05:55:16.847Z,2.85
2017-06-26T05:57:43.019Z,2.97
2017-06-26T06:00:10.011Z,2.80
2017-06-26T06:02:36.207Z,2.67
2017-06-26T06:05:02.396Z,2.60
2017-06-26T06:07:28.604Z,2.50
2017-06-26T06:09:54.783Z,2.70
2017-06-26T06:12:21.003Z,2.10
2017-06-26T06:14:47.192Z,2.33
2017-06-26T06:17:13.373Z,2.42
2017-06-26T06:19:39.587Z,2.50
2017-06-26T06:22:05.797Z,2.60
2017-06-26T06:24:32.759Z,2.30
2017-06-26T06:26:58.953Z,2.60
2017-06-26T06:29:25.137Z,2.30
2017-06-26T06:31:51.353Z,2.50
2017-06-26T06:34:17.527Z,2.25
2017-06-26T06:36:43.722Z,3.17
2017-06-26T06:39:09.975Z,2.42
2017-06-26T06:41:36.172Z,2.00
2017-06-26T06:44:02.382Z,2.95
2017-06-26T06:46:28.605Z,2.10
2017-06-26T06:48:54.812Z,1.92
2017-06-26T06:51:21.731Z,1.98
2017-06-26T06:53:47.935Z,1.90
2017-06-26T06:56:14.099Z,2.00
2017-06-26T06:58:40.307Z,1.95
2017-06-26T07:01:06.481Z,3.92
2017-06-26T07:03:32.653Z,1.75
2017-06-26T07:05:58.843Z,1.92
2017-06-26T07:08:25.056Z,1.70
2017-06-26T07:10:51.251Z,1.50
2017-06-26T07:13:17.417Z,1.65
2017-06-26T07:15:43.636Z,1.40
2017-06-26T07:18:09.807Z,1.77
2017-06-26T07:20:35.984Z,1.50
2017-06-26T07:23:02.955Z,1.40
2017-06-26T07:25:29.111Z,1.50
2017-06-26T07:27:55.319Z,1.55
2017-06-26T07:30:21.544Z,1.60
2017-06-26T07:32:47.725Z,1.37
2017-06-26T07:35:14.667Z,1.55
2017-06-26T07:37:41.623Z,1.20
2017-06-26T07:40:07.799Z,1.42
2017-06-26T07:42:34.024Z,1.20
2017-06-26T07:45:00.216Z,1.30
2017-06-26T07:47:26.387Z,1.42
2017-06-26T07:49:52.579Z,1.48
2017-06-26T07:52:18.774Z,1.30
2017-06-26T07:54:44.991Z,1.10
2017-06-26T07:57:11.208Z,1.15
2017-06-26T07:59:37.420Z,1.40
2017-06-26T08:02:03.634Z,1.45
2017-06-26T08:04:29.876Z,1.33
2017-06-26T08:06:56.089Z,1.00
2017-06-26T08:09:22.280Z,1.12
2017-06-26T08:11:48.447Z,1.10
2017-06-26T08:14:14.778Z,1.27
2017-06-26T08:16:40.955Z,0.90
2017-06-26T08:19:07.904Z,1.17
2017-06-26T08:21:34.810Z,1.10
2017-06-26T08:24:01.004Z,1.27
2017-06-26T08:26:27.212Z,1.00
2017-06-26T08:28:53.391Z,1.65
2017-06-26T08:31:19.612Z,1.20
2017-06-26T08:33:45.815Z,1.30
2017-06-26T08:36:11.996Z,1.35
2017-06-26T08:38:38.931Z,1.50
2017-06-26T08:41:05.162Z,1.55
2017-06-26T08:43:32.092Z,1.30
2017-06-26T08:45:58.261Z,1.40
2017-06-26T08:48:24.483Z,1.40
2017-06-26T08:50:50.820Z,1.50
2017-06-26T08:53:16.995Z,1.50
2017-06-26T08:55:43.166Z,1.40
2017-06-26T08:58:09.375Z,1.37
2017-06-26T09:00:36.287Z,1.10
2017-06-26T09:03:02.512Z,1.20
2017-06-26T09:05:28.691Z,1.40
2017-06-26T09:07:54.898Z,1.30
2017-06-26T09:10:21.097Z,1.30
2017-06-26T09:12:47.272Z,1.37
2017-06-26T09:15:13.503Z,1.20
2017-06-26T09:17:39.685Z,1.10
2017-06-26T09:20:05.856Z,1.50
2017-06-26T09:22:32.140Z,1.42
2017-06-26T09:24:58.307Z,1.52
2017-06-26T09:27:24.486Z,1.40
2017-06-26T09:29:50.707Z,1.25
2017-06-26T09:32:16.883Z,1.17
2017-06-26T09:34:43.071Z,1.30
2017-06-26T09:37:09.235Z,1.10
2017-06-26T09:39:35.439Z,1.25
2017-06-26T09:42:02.411Z,1.25
2017-06-26T09:44:28.611Z,1.30
2017-06-26T09:46:55.611Z,1.40
2017-06-26T09:49:21.875Z,1.10
2017-06-26T09:51:48.072Z,1.23
2017-06-26T09:54:14.249Z,1.20
2017-06-26T09:56:41.199Z,0.80
2017-06-26T09:59:07.387Z,1.08
2017-06-26T10:01:33.567Z,1.10
2017-06-26T10:03:59.891Z,1.23
2017-06-26T10:06:26.060Z,1.00
2017-06-26T10:08:52.291Z,1.10
2017-06-26T10:11:18.476Z,1.33
2017-06-26T10:13:44.644Z,1.10
2017-06-26T10:16:10.845Z,1.02
2017-06-26T10:18:37.060Z,1.20
2017-06-26T10:21:03.273Z,1.20
2017-06-26T10:23:30.196Z,1.12
2017-06-26T10:25:56.405Z,1.00
2017-06-26T10:28:22.583Z,1.10
2017-06-26T10:30:48.804Z,0.98
2017-06-26T10:33:15.008Z,1.20
2017-06-26T10:35:41.176Z,1.05
2017-06-26T10:38:07.389Z,1.00
2017-06-26T10:40:34.412Z,1.00
2017-06-26T10:43:00.623Z,1.20
2017-06-26T10:45:26.819Z,1.10
2017-06-26T10:47:52.987Z,0.82
2017-06-26T10:50:19.947Z,1.10
2017-06-26T10:52:46.875Z,1.15
2017-06-26T10:55:13.832Z,1.02
2017-06-26T10:57:40.008Z,1.37
2017-06-26T11:00:06.220Z,1.00
2017-06-26T11:02:32.424Z,0.75
2017-06-26T11:04:58.624Z,0.90
2017-06-26T11:07:24.819Z,0.90
2017-06-26T11:09:51.015Z,1.02
2017-06-26T11:12:17.240Z,0.90
2017-06-26T11:14:43.395Z,1.10
2017-06-26T11:17:09.567Z,0.90
2017-06-26T11:19:36.528Z,0.98
2017-06-26T11:22:02.705Z,1.10
2017-06-26T11:24:28.921Z,0.80
2017-06-26T11:26:55.168Z,1.05
2017-06-26T11:29:21.372Z,1.20
2017-06-26T11:31:47.552Z,1.00
2017-06-26T11:34:13.739Z,1.20
2017-06-26T11:36:39.986Z,1.02
2017-06-26T11:39:06.183Z,0.95
2017-06-26T11:41:32.353Z,0.88
2017-06-26T11:43:59.304Z,1.00
2017-06-26T11:46:25.557Z,1.20
2017-06-26T11:48:51.760Z,1.27
2017-06-26T11:51:18.764Z,1.10
2017-06-26T11:53:44.985Z,1.10
2017-06-26T11:56:11.164Z,1.20
2017-06-26T11:58:37.375Z,0.90
2017-06-26T12:01:03.555Z,0.90
2017-06-26T12:03:29.740Z,1.23
2017-06-26T12:05:56.687Z,0.90
2017-06-26T12:08:22.939Z,1.05
2017-06-26T12:10:49.151Z,0.88
2017-06-26T12:13:15.328Z,1.00
2017-06-26T12:15:41.567Z,1.02
2017-06-26T12:18:07.754Z,1.10
2017-06-26T12:20:33.919Z,0.95
2017-06-26T12:23:00.160Z,1.00
2017-06-26T12:25:27.116Z,0.90
2017-06-26T12:27:54.027Z,1.00
2017-06-26T12:30:20.228Z,0.90
2017-06-26T12:32:46.428Z,1.00
2017-06-26T12:35:12.605Z,0.95
2017-06-26T12:37:38.825Z,0.80
2017-06-26T12:40:05.073Z,1.00
2017-06-26T12:42:31.379Z,0.95
2017-06-26T12:44:57.559Z,1.02
2017-06-26T12:47:23.856Z,0.80
2017-06-26T12:49:50.199Z,0.98
2017-06-26T12:52:17.123Z,0.90
2017-06-26T12:54:43.412Z,1.30
2017-06-26T12:57:09.607Z,1.08
2017-06-26T12:59:36.564Z,1.00
2017-06-26T13:02:02.779Z,1.10
2017-06-26T13:04:29.699Z,1.08
2017-06-26T13:06:55.959Z,0.80
2017-06-26T13:09:22.147Z,1.00
2017-06-26T13:11:48.333Z,1.00
2017-06-26T13:14:14.612Z,1.35
2017-06-26T13:16:40.832Z,0.80
2017-06-26T13:19:07.016Z,1.30
2017-06-26T13:21:33.285Z,1.15
2017-06-26T13:23:59.566Z,1.30
2017-06-26T13:26:25.858Z,0.93
2017-06-26T13:28:52.083Z,1.10
2017-06-26T13:31:18.350Z,1.00
2017-06-26T13:33:44.547Z,0.85
2017-06-26T13:36:10.731Z,1.00
2017-06-26T13:38:36.961Z,0.75
2017-06-26T13:41:03.629Z,1.00
2017-06-26T13:43:29.931Z,1.10
2017-06-26T13:45:56.116Z,1.20
2017-06-26T13:48:22.336Z,0.90
2017-06-26T13:50:48.543Z,1.20
2017-06-26T13:53:14.759Z,1.12
2017-06-26T13:55:40.947Z,1.00
2017-06-26T13:58:07.164Z,1.00
2017-06-26T14:00:33.353Z,1.00
2017-06-26T14:03:00.317Z,1.30
2017-06-26T14:05:26.508Z,1.25
2017-06-26T14:07:52.780Z,1.10
2017-06-26T14:10:18.956Z,1.02
2017-06-26T14:12:45.152Z,1.05
2017-06-26T14:15:11.402Z,1.00
2017-06-26T14:17:37.587Z,1.12
2017-06-26T14:20:03.824Z,1.00
2017-06-26T14:22:30.056Z,1.10
2017-06-26T14:24:56.286Z,0.85
2017-06-26T14:27:22.512Z,1.00
2017-06-26T14:29:48.699Z,1.20
2017-06-26T14:32:15.649Z,1.05
2017-06-26T14:34:42.621Z,1.00
2017-06-26T14:37:08.809Z,1.02
2017-06-26T14:39:35.028Z,1.12
2017-06-26T14:42:01.281Z,1.30
2017-06-26T14:44:28.221Z,4.75
2017-06-26T14:46:55.163Z,0.98
2017-06-26T14:49:22.143Z,1.15
2017-06-26T14:51:48.385Z,0.90
2017-06-26T14:54:14.611Z,0.90
2017-06-26T14:56:40.811Z,1.00
2017-06-26T14:59:07.007Z,1.15
2017-06-26T15:01:33.228Z,1.00
2017-06-26T15:03:59.424Z,1.00
2017-06-26T15:06:25.661Z,0.90
2017-06-26T15:08:51.843Z,0.90
2017-06-26T15:11:18.057Z,1.05
2017-06-26T15:13:45.033Z,1.40
2017-06-26T15:16:11.232Z,1.25
2017-06-26T15:18:37.423Z,0.90
2017-06-26T15:21:03.654Z,1.00
2017-06-26T15:23:29.864Z,1.15
2017-06-26T15:25:56.108Z,1.10
2017-06-26T15:28:22.302Z,1.00
2017-06-26T15:30:48.491Z,0.98
2017-06-26T15:33:15.448Z,0.90
2017-06-26T15:35:41.703Z,0.90
2017-06-26T15:38:07.931Z,0.93
2017-06-26T15:40:34.116Z,1.17
2017-06-26T15:43:00.395Z,1.23
2017-06-26T15:45:26.570Z,1.42
2017-06-26T15:47:53.471Z,1.48
2017-06-26T15:50:19.691Z,0.90
2017-06-26T15:52:45.915Z,0.88
2017-06-26T15:55:12.100Z,1.62
2017-06-26T15:57:39.051Z,1.10
2017-06-26T16:00:05.240Z,0.90
2017-06-26T16:02:31.496Z,1.10
2017-06-26T16:04:58.420Z,1.08
2017-06-26T16:07:24.614Z,1.30
2017-06-26T16:09:50.827Z,1.08
2017-06-26T16:12:17.035Z,1.30
2017-06-26T16:14:43.260Z,1.50
2017-06-26T16:17:09.513Z,1.70
2017-06-26T16:19:35.732Z,1.42
2017-06-26T16:22:01.953Z,2.10
2017-06-26T16:24:28.166Z,1.30
2017-06-26T16:26:54.352Z,1.10
2017-06-26T16:29:20.560Z,1.05
2017-06-26T16:31:46.770Z,0.85
2017-06-26T16:34:12.984Z,0.90
2017-06-26T16:36:39.231Z,0.80
2017-06-26T16:39:05.413Z,0.85
2017-06-26T16:41:32.376Z,0.82
2017-06-26T16:43:58.615Z,1.10
2017-06-26T16:46:24.876Z,1.00
2017-06-26T16:48:52.806Z,0.98
2017-06-26T16:51:20.613Z,0.90
2017-06-26T16:53:48.210Z,0.80
2017-06-26T16:56:16.924Z,0.80
2017-06-26T16:58:43.186Z,1.10
2017-06-26T17:01:09.403Z,0.93
2017-06-26T17:03:35.602Z,1.20
2017-06-26T17:06:01.800Z,1.10
2017-06-26T17:08:28.026Z,1.45
2017-06-26T17:10:55.052Z,1.00
2017-06-26T17:13:21.250Z,0.93
2017-06-26T17:15:47.431Z,1.00
2017-06-26T17:18:14.426Z,0.80
2017-06-26T17:20:40.631Z,1.25
2017-06-26T17:23:06.828Z,0.95
2017-06-26T17:25:33.772Z,1.10
2017-06-26T17:28:00.749Z,1.27
2017-06-26T17:30:27.009Z,1.10
2017-06-26T17:32:53.195Z,1.00
2017-06-26T17:35:19.413Z,1.00
2017-06-26T17:37:45.727Z,1.00
2017-06-26T17:40:12.672Z,0.90
2017-06-26T17:42:39.593Z,1.62
2017-06-26T17:45:05.804Z,1.85
2017-06-26T17:47:32.002Z,1.50
2017-06-26T17:49:59.145Z,1.23
2017-06-26T17:52:25.400Z,1.30
2017-06-26T17:54:51.619Z,1.27
2017-06-26T17:57:17.802Z,1.10
2017-06-26T17:59:44.732Z,1.33
2017-06-26T18:02:10.932Z,1.50
2017-06-26T18:04:37.110Z,1.45
2017-06-26T18:07:03.319Z,1.70
2017-06-26T18:09:30.247Z,1.98
2017-06-26T18:11:56.551Z,1.55
2017-06-26T18:14:22.755Z,1.85
2017-06-26T18:16:48.997Z,2.05
2017-06-26T18:19:15.200Z,2.00
2017-06-26T18:21:41.397Z,1.83
2017-06-26T18:24:07.611Z,2.60
2017-06-26T18:26:33.811Z,2.05
2017-06-26T18:29:00.060Z,1.90
2017-06-26T18:31:26.276Z,2.40
2017-06-26T18:33:52.504Z,2.03
2017-06-26T18:36:18.749Z,2.40
2017-06-26T18:38:44.933Z,2.60
2017-06-26T18:41:11.176Z,2.12
2017-06-26T18:43:37.408Z,2.05
2017-06-26T18:46:03.628Z,2.53
2017-06-26T18:48:29.820Z,2.90
2017-06-26T18:50:56.070Z,2.50
2017-06-26T18:53:22.312Z,2.60
2017-06-26T18:55:48.505Z,2.40
2017-06-26T18:58:14.696Z,2.00
2017-06-26T19:00:40.937Z,2.53
2017-06-26T19:03:07.883Z,2.50
2017-06-26T19:05:34.060Z,2.47
2017-06-26T19:08:00.278Z,2.60
2017-06-26T19:10:26.564Z,2.25
2017-06-26T19:12:53.550Z,2.47
2017-06-26T19:15:19.731Z,2.20
2017-06-26T19:17:45.980Z,2.97
2017-06-26T19:20:12.945Z,2.50
2017-06-26T19:22:39.120Z,2.60
2017-06-26T19:25:05.331Z,2.40
2017-06-26T19:27:31.507Z,2.53
2017-06-26T19:29:57.676Z,2.83
2017-06-26T19:32:23.907Z,2.30
2017-06-26T19:34:50.116Z,2.58
2017-06-26T19:37:16.276Z,2.60
2017-06-26T19:39:42.587Z,2.30
2017-06-26T19:42:08.785Z,2.50
2017-06-26T19:44:35.020Z,1.95
2017-06-26T19:47:01.232Z,2.12
2017-06-26T19:49:27.432Z,2.10
2017-06-26T19:51:53.619Z,2.22
2017-06-26T19:54:19.913Z,2.45
2017-06-26T19:56:46.080Z,1.77
2017-06-26T19:59:12.256Z,2.10
2017-06-26T20:01:39.256Z,2.60
2017-06-26T20:04:05.436Z,3.20
2017-06-26T20:06:31.737Z,2.70
2017-06-26T20:08:57.945Z,3.05
2017-06-26T20:11:24.135Z,2.72
2017-06-26T20:13:50.377Z,2.65
2017-06-26T20:16:16.557Z,1.90
2017-06-26T20:18:43.489Z,1.52
2017-06-26T20:21:09.721Z,1.50
2017-06-26T20:23:36.649Z,1.80
2017-06-26T20:26:02.839Z,1.50
2017-06-26T20:28:29.038Z,1.50
2017-06-26T20:30:56.002Z,1.20
2017-06-26T20:33:22.213Z,1.00
2017-06-26T20:35:48.428Z,1.20
2017-06-26T20:38:15.375Z,1.15
2017-06-26T20:40:42.388Z,1.30
2017-06-26T20:43:08.549Z,1.20
2017-06-26T20:45:34.748Z,1.30
2017-06-26T20:48:00.981Z,1.45
2017-06-26T20:50:27.163Z,1.50
2017-06-26T20:52:53.380Z,1.58
2017-06-26T20:55:19.600Z,1.20
2017-06-26T20:57:45.843Z,1.30
2017-06-26T21:00:12.058Z,1.40
2017-06-26T21:02:38.247Z,1.20
2017-06-26T21:05:04.531Z,1.23
2017-06-26T21:07:30.715Z,1.20
2017-06-26T21:09:57.623Z,1.05
2017-06-26T21:12:23.829Z,1.30
2017-06-26T21:14:50.000Z,1.30
2017-06-26T21:17:16.200Z,1.65
2017-06-26T21:19:42.399Z,1.37
2017-06-26T21:22:08.615Z,1.27
2017-06-26T21:24:34.819Z,1.60
2017-06-26T21:27:00.991Z,1.60
2017-06-26T21:29:27.189Z,1.77
2017-06-26T21:31:53.367Z,1.60
2017-06-26T21:34:19.580Z,1.73
2017-06-26T21:36:45.782Z,1.77
2017-06-26T21:39:12.025Z,1.70
2017-06-26T21:41:38.199Z,2.35
2017-06-26T21:44:04.434Z,2.17
2017-06-26T21:46:30.611Z,2.10
2017-06-26T21:48:56.784Z,2.20
2017-06-26T21:51:23.012Z,2.90
2017-06-26T21:53:49.179Z,2.28
2017-06-26T21:56:15.392Z,2.30
2017-06-26T21:58:41.559Z,2.70
2017-06-26T22:01:07.815Z,2.40
2017-06-26T22:03:34.036Z,2.67
2017-06-26T22:06:00.216Z,2.83
2017-06-26T22:08:26.423Z,2.58
2017-06-26T22:10:52.587Z,2.70
2017-06-26T22:13:18.784Z,2.87
2017-06-26T22:15:44.953Z,2.95
2017-06-26T22:18:11.157Z,2.65
2017-06-26T22:20:37.331Z,2.60
2017-06-26T22:23:03.532Z,2.60
2017-06-26T22:25:29.733Z,3.15
2017-06-26T22:27:55.907Z,2.95
2017-06-26T22:30:22.122Z,2.65
2017-06-26T22:32:48.320Z,2.45
2017-06-26T22:35:14.514Z,2.90
2017-06-26T22:37:40.692Z,2.70
2017-06-26T22:40:06.896Z,2.85
2017-06-26T22:42:33.115Z,2.60
2017-06-26T22:44:59.308Z,2.97
2017-06-26T22:47:26.248Z,2.90
2017-06-26T22:49:53.179Z,3.20
2017-06-26T22:52:19.399Z,2.58
2017-06-26T22:54:45.581Z,2.83
2017-06-26T22:57:11.783Z,3.45
2017-06-26T22:59:37.978Z,2.70
2017-06-26T23:02:04.179Z,2.30
2017-06-26T23:04:30.371Z,2.70
2017-06-26T23:06:56.594Z,2.50
2017-06-26T23:09:22.763Z,2.85
2017-06-26T23:11:48.947Z,2.78
2017-06-26T23:14:15.152Z,3.08
2017-06-26T23:16:41.403Z,2.70
2017-06-26T23:19:07.594Z,3.10
2017-06-26T23:21:33.787Z,2.15
2017-06-26T23:23:59.997Z,2.80
2017-06-26T23:26:26.184Z,2.97
2017-06-26T23:28:52.412Z,3.17
2017-06-26T23:31:18.593Z,2.53
2017-06-26T23:33:44.816Z,2.90
2017-06-26T23:36:11.061Z,2.80
2017-06-26T23:38:37.243Z,2.80
2017-06-26T23:41:04.184Z,2.90
2017-06-26T23:43:31.099Z,2.85
2017-06-26T23:45:57.300Z,2.72
2017-06-26T23:48:23.484Z,2.72
2017-06-26T23:50:49.667Z,2.72
2017-06-26T23:53:15.859Z,3.35
2017-06-26T23:55:42.031Z,2.78
2017-06-26T23:58:08.224Z,2.58
